createdAt,value
2022-09-20T00:01:16.147Z,60.28
2022-09-20T00:03:48.327Z,60.80
2022-09-20T00:06:18.366Z,61.03
2022-09-20T00:08:45.904Z,60.82
2022-09-20T00:11:21.549Z,60.59
2022-09-20T00:13:50.364Z,60.67
2022-09-20T00:16:39.581Z,61.42
2022-09-20T00:19:07.622Z,61.68
2022-09-20T00:21:36.334Z,62.44
2022-09-20T00:24:03.561Z,62.25
2022-09-20T00:26:30.337Z,61.77
2022-09-20T00:28:58.494Z,60.96
2022-09-20T00:31:25.284Z,60.73
2022-09-20T00:34:13.850Z,61.40
2022-09-20T00:36:40.653Z,60.71
2022-09-20T00:39:07.448Z,60.91
2022-09-20T00:41:34.233Z,61.04
2022-09-20T00:44:01.815Z,59.84
2022-09-20T00:46:44.631Z,60.16
2022-09-20T00:49:18.549Z,60.51
2022-09-20T00:51:49.625Z,60.47
2022-09-20T00:54:20.825Z,60.74
2022-09-20T00:56:48.762Z,61.69
2022-09-20T00:59:22.982Z,61.89
2022-09-20T01:01:53.799Z,61.57
2022-09-20T01:04:23.611Z,61.99
2022-09-20T01:06:54.002Z,62.65
2022-09-20T01:09:20.746Z,62.07
2022-09-20T01:11:48.433Z,62.09
2022-09-20T01:14:17.070Z,62.71
2022-09-20T01:16:43.932Z,63.14
2022-09-20T01:19:22.196Z,62.16
2022-09-20T01:21:48.928Z,61.35
2022-09-20T01:24:18.558Z,61.79
2022-09-20T01:27:03.610Z,62.03
2022-09-20T01:30:06.963Z,62.37
2022-09-20T01:32:51.615Z,62.53
2022-09-20T01:35:21.318Z,62.42
2022-09-20T01:38:12.741Z,62.68
2022-09-20T01:41:38.100Z,63.15
2022-09-20T01:44:11.084Z,62.90
2022-09-20T01:46:38.196Z,63.57
2022-09-20T01:49:10.623Z,63.25
2022-09-20T01:52:03.333Z,63.94
2022-09-20T01:55:07.428Z,63.83
2022-09-20T01:57:59.560Z,63.50
2022-09-20T02:00:39.139Z,62.83
2022-09-20T02:03:49.104Z,61.92
2022-09-20T02:06:43.534Z,61.67
2022-09-20T02:09:22.420Z,60.97
2022-09-20T02:12:19.523Z,60.31
2022-09-20T02:14:55.219Z,60.45
2022-09-20T02:17:33.851Z,59.92
2022-09-20T02:20:09.710Z,59.65
2022-09-20T02:23:16.202Z,60.14
2022-09-20T02:26:19.985Z,60.95
2022-09-20T02:29:12.825Z,61.05
2022-09-20T02:31:45.715Z,61.51
2022-09-20T02:34:50.972Z,61.35
2022-09-20T02:37:20.674Z,61.30
2022-09-20T02:39:47.522Z,61.87
2022-09-20T02:42:49.715Z,61.77
2022-09-20T02:45:21.599Z,62.10
2022-09-20T02:47:48.478Z,61.71
2022-09-20T02:50:30.147Z,62.07
2022-09-20T02:53:35.400Z,61.83
2022-09-20T02:56:21.052Z,61.68
2022-09-20T02:59:26.785Z,62.33
2022-09-20T03:02:40.105Z,62.87
2022-09-20T03:05:27.580Z,62.79
2022-09-20T03:08:18.469Z,62.34
2022-09-20T03:10:49.399Z,61.95
2022-09-20T03:13:31.217Z,62.10
2022-09-20T03:16:05.447Z,61.48
2022-09-20T03:18:47.182Z,61.24
2022-09-20T03:21:32.311Z,61.30
2022-09-20T03:24:29.097Z,61.36
2022-09-20T03:27:35.290Z,61.52
2022-09-20T03:30:34.545Z,62.05
2022-09-20T03:33:13.914Z,62.64
2022-09-20T03:36:17.270Z,62.27
2022-09-20T03:38:59.016Z,62.52
2022-09-20T03:42:01.109Z,62.56
2022-09-20T03:44:43.763Z,62.95
2022-09-20T03:47:19.215Z,62.95
2022-09-20T03:50:24.454Z,62.75
2022-09-20T03:53:01.930Z,62.37
2022-09-20T03:55:44.025Z,62.62
2022-09-20T03:58:22.522Z,62.46
2022-09-20T04:01:16.248Z,62.17
2022-09-20T04:04:18.613Z,61.18
2022-09-20T04:07:09.905Z,61.26
2022-09-20T04:09:47.659Z,61.49
2022-09-20T04:12:39.267Z,61.18
2022-09-20T04:15:22.236Z,61.29
2022-09-20T04:18:07.723Z,60.89
2022-09-20T04:20:43.794Z,61.35
2022-09-20T04:23:33.591Z,61.63
2022-09-20T04:26:02.223Z,61.74
2022-09-20T04:28:39.574Z,61.80
2022-09-20T04:31:23.148Z,62.54
2022-09-20T04:33:53.437Z,62.97
2022-09-20T04:36:34.166Z,62.74
2022-09-20T04:39:07.191Z,62.45
2022-09-20T04:42:08.547Z,62.62
2022-09-20T04:44:55.796Z,62.35
2022-09-20T04:47:42.365Z,62.20
2022-09-20T04:50:19.304Z,62.56
2022-09-20T04:53:21.628Z,62.12
2022-09-20T04:56:14.503Z,62.28
2022-09-20T04:58:49.034Z,62.52
2022-09-20T05:01:42.629Z,62.94
2022-09-20T05:04:57.699Z,62.94
2022-09-20T05:08:02.141Z,62.60
2022-09-20T05:10:34.909Z,62.73
2022-09-20T05:13:28.057Z,62.13
2022-09-20T05:16:00.993Z,62.61
2022-09-20T05:18:47.908Z,62.67
2022-09-20T05:21:20.496Z,62.62
2022-09-20T05:24:24.314Z,62.80
2022-09-20T05:27:09.313Z,62.61
2022-09-20T05:30:28.323Z,62.25
2022-09-20T05:33:15.149Z,62.44
2022-09-20T05:36:03.907Z,62.61
2022-09-20T05:38:47.562Z,62.33
2022-09-20T05:41:20.602Z,62.30
2022-09-20T05:44:14.098Z,62.19
2022-09-20T05:47:00.148Z,62.32
2022-09-20T05:49:55.561Z,62.34
2022-09-20T05:52:46.851Z,62.56
2022-09-20T05:55:19.763Z,63.16
2022-09-20T05:57:56.375Z,62.83
2022-09-20T06:00:29.010Z,62.66
2022-09-20T06:03:17.623Z,62.66
2022-09-20T06:05:59.571Z,61.77
2022-09-20T06:09:21.800Z,61.78
2022-09-20T06:12:14.346Z,61.62
2022-09-20T06:15:00.030Z,61.67
2022-09-20T06:17:47.593Z,61.61
2022-09-20T06:20:56.435Z,60.98
2022-09-20T06:23:23.431Z,61.15
2022-09-20T06:25:57.618Z,60.35
2022-09-20T06:28:29.021Z,59.51
2022-09-20T06:30:57.260Z,58.88
2022-09-20T06:33:28.883Z,58.45
2022-09-20T06:36:31.853Z,59.16
2022-09-20T06:40:19.388Z,59.10
2022-09-20T06:42:46.061Z,59.41
2022-09-20T06:45:12.822Z,60.42
2022-09-20T06:47:40.343Z,60.76
2022-09-20T06:50:07.437Z,60.77
2022-09-20T06:52:35.602Z,60.91
2022-09-20T06:55:07.330Z,61.35
2022-09-20T06:57:37.834Z,61.49
2022-09-20T07:00:11.231Z,60.81
2022-09-20T07:02:38.134Z,60.76
2022-09-20T07:05:07.439Z,60.44
2022-09-20T07:07:34.087Z,59.86
2022-09-20T07:10:00.799Z,59.56
2022-09-20T07:12:33.415Z,60.01
2022-09-20T07:15:00.161Z,59.66
2022-09-20T07:17:26.855Z,59.94
2022-09-20T07:19:53.536Z,59.44
2022-09-20T07:22:20.289Z,59.48
2022-09-20T07:24:48.190Z,58.78
2022-09-20T07:27:14.961Z,58.85
2022-09-20T07:29:41.729Z,58.63
2022-09-20T07:32:08.526Z,58.68
2022-09-20T07:37:19.394Z,58.99
2022-09-20T07:39:46.295Z,58.12
2022-09-20T07:42:13.303Z,57.79
2022-09-20T07:44:42.265Z,57.00
2022-09-20T07:47:11.114Z,56.23
2022-09-20T07:49:37.783Z,56.06
2022-09-20T07:52:04.838Z,56.16
2022-09-20T07:54:31.676Z,56.15
2022-09-20T07:56:58.424Z,55.09
2022-09-20T07:59:25.932Z,55.70
2022-09-20T08:01:52.666Z,55.55
2022-09-20T08:04:20.749Z,54.92
2022-09-20T08:06:47.450Z,54.36
2022-09-20T08:09:14.433Z,53.87
2022-09-20T08:11:42.769Z,54.36
2022-09-20T08:14:16.223Z,54.79
2022-09-20T08:16:48.255Z,53.71
2022-09-20T08:19:21.077Z,53.77
2022-09-20T08:21:48.741Z,53.63
2022-09-20T08:24:17.144Z,52.74
2022-09-20T08:26:44.629Z,51.62
2022-09-20T08:29:11.706Z,50.92
2022-09-20T08:31:42.132Z,51.24
2022-09-20T08:34:11.625Z,51.37
2022-09-20T08:36:46.648Z,48.42
2022-09-20T08:42:04.418Z,42.88
2022-09-20T08:44:45.255Z,41.69
2022-09-20T08:47:22.111Z,41.85
2022-09-20T08:49:56.893Z,40.45
2022-09-20T08:52:37.022Z,39.09
2022-09-20T08:55:22.994Z,34.29
2022-09-20T08:57:52.966Z,31.30
2022-09-20T09:00:26.034Z,29.11
2022-09-20T09:02:57.159Z,27.44
2022-09-20T09:05:54.164Z,29.00
2022-09-20T09:08:26.147Z,30.45
2022-09-20T09:10:57.467Z,32.84
2022-09-20T09:13:27.398Z,34.25
2022-09-20T09:16:11.392Z,35.04
2022-09-20T09:18:42.044Z,35.72
2022-09-20T09:21:16.833Z,37.03
2022-09-20T09:24:11.116Z,37.24
2022-09-20T09:26:43.365Z,37.73
2022-09-20T09:29:22.044Z,38.05
2022-09-20T09:31:51.733Z,38.83
2022-09-20T09:34:30.569Z,39.00
2022-09-20T09:36:58.362Z,40.42
2022-09-20T09:39:31.534Z,40.81
2022-09-20T09:42:02.302Z,41.59
2022-09-20T09:44:33.990Z,41.80
2022-09-20T09:47:01.307Z,42.60
2022-09-20T09:49:34.125Z,43.78
2022-09-20T09:52:26.770Z,44.13
2022-09-20T09:55:02.183Z,44.97
2022-09-20T09:57:51.956Z,44.95
2022-09-20T10:00:22.670Z,44.78
2022-09-20T10:02:58.519Z,42.39
2022-09-20T10:05:32.979Z,42.23
2022-09-20T10:08:20.921Z,41.77
2022-09-20T10:10:47.539Z,40.39
2022-09-20T10:13:33.485Z,40.42
2022-09-20T10:16:07.213Z,39.86
2022-09-20T10:19:01.760Z,37.77
2022-09-20T10:21:50.858Z,34.58
2022-09-20T10:24:38.647Z,32.66
2022-09-20T10:27:49.157Z,32.07
2022-09-20T10:30:20.929Z,32.63
2022-09-20T10:33:06.461Z,34.72
2022-09-20T10:35:57.330Z,35.93
2022-09-20T10:38:31.965Z,36.88
2022-09-20T10:41:30.804Z,35.61
2022-09-20T10:44:20.694Z,37.29
2022-09-20T10:47:00.178Z,36.22
2022-09-20T10:49:53.598Z,35.91
2022-09-20T10:52:57.097Z,36.83
2022-09-20T10:55:25.453Z,34.02
2022-09-20T10:57:55.603Z,33.96
2022-09-20T11:00:42.160Z,35.21
2022-09-20T11:03:42.122Z,36.45
2022-09-20T11:06:27.632Z,37.35
2022-09-20T11:08:59.435Z,37.08
2022-09-20T11:11:32.865Z,37.60
2022-09-20T11:14:10.665Z,38.68
2022-09-20T11:16:44.692Z,38.81
2022-09-20T11:19:11.372Z,40.07
2022-09-20T11:21:44.518Z,40.20
2022-09-20T11:24:27.920Z,42.10
2022-09-20T11:27:00.783Z,42.54
2022-09-20T11:29:32.364Z,43.43
2022-09-20T11:32:13.759Z,43.70
2022-09-20T11:34:51.811Z,44.26
2022-09-20T11:37:19.329Z,44.47
2022-09-20T11:39:55.680Z,44.77
2022-09-20T11:42:36.706Z,44.42
2022-09-20T11:45:04.161Z,44.70
2022-09-20T11:47:53.209Z,44.18
2022-09-20T11:50:45.187Z,43.54
2022-09-20T11:53:33.246Z,42.91
2022-09-20T11:56:05.589Z,43.49
2022-09-20T11:58:48.180Z,44.13
2022-09-20T12:01:28.325Z,45.29
2022-09-20T12:04:32.985Z,45.50
2022-09-20T12:07:11.489Z,46.00
2022-09-20T12:09:45.151Z,47.58
2022-09-20T12:12:16.812Z,50.18
2022-09-20T12:14:54.908Z,50.20
2022-09-20T12:17:46.484Z,51.31
2022-09-20T12:20:32.626Z,52.29
2022-09-20T12:23:37.117Z,53.26
2022-09-20T12:26:06.893Z,53.65
2022-09-20T12:28:39.600Z,54.94
2022-09-20T12:31:18.657Z,55.93
2022-09-20T12:33:56.408Z,56.29
2022-09-20T12:36:24.034Z,57.76
2022-09-20T12:39:30.132Z,58.41
2022-09-20T12:42:09.399Z,59.26
2022-09-20T12:44:51.357Z,57.99
2022-09-20T12:47:20.490Z,57.69
2022-09-20T12:50:05.850Z,56.08
2022-09-20T12:52:50.857Z,54.42
2022-09-20T12:55:27.047Z,56.18
2022-09-20T12:58:06.523Z,58.04
2022-09-20T13:01:00.980Z,56.25
2022-09-20T13:03:44.332Z,55.44
2022-09-20T13:06:14.890Z,52.56
2022-09-20T13:08:50.076Z,54.00
2022-09-20T13:11:20.211Z,52.22
2022-09-20T13:13:51.805Z,51.56
2022-09-20T13:16:24.015Z,51.94
2022-09-20T13:19:00.065Z,49.77
2022-09-20T13:21:27.884Z,49.26
2022-09-20T13:23:55.322Z,49.27
2022-09-20T13:26:30.088Z,46.67
2022-09-20T13:28:59.263Z,45.50
2022-09-20T13:31:32.821Z,44.76
2022-09-20T13:34:14.058Z,45.45
2022-09-20T13:36:41.629Z,45.28
2022-09-20T13:39:08.794Z,45.85
2022-09-20T13:41:36.365Z,46.61
2022-09-20T13:44:03.993Z,45.98
2022-09-20T13:46:33.607Z,43.98
2022-09-20T13:49:12.821Z,46.00
2022-09-20T13:51:39.642Z,44.29
2022-09-20T13:54:32.827Z,44.65
2022-09-20T13:57:03.453Z,45.86
2022-09-20T13:59:40.334Z,46.83
2022-09-20T14:02:19.433Z,43.90
2022-09-20T14:04:46.651Z,42.69
2022-09-20T14:07:15.021Z,43.23
2022-09-20T14:09:41.910Z,44.43
2022-09-20T14:12:12.193Z,45.46
2022-09-20T14:14:39.993Z,43.54
2022-09-20T14:17:09.620Z,42.27
2022-09-20T14:19:41.141Z,44.83
2022-09-20T14:22:22.476Z,44.97
2022-09-20T14:25:13.872Z,43.01
2022-09-20T14:27:40.761Z,42.33
2022-09-20T14:30:31.712Z,42.36
2022-09-20T14:32:59.117Z,41.88
2022-09-20T14:35:27.015Z,41.08
2022-09-20T14:38:01.488Z,40.96
2022-09-20T14:40:31.826Z,41.66
2022-09-20T14:43:06.188Z,39.31
2022-09-20T14:45:35.306Z,39.67
2022-09-20T14:48:10.363Z,38.82
2022-09-20T14:50:44.214Z,37.71
2022-09-20T14:53:10.873Z,38.19
2022-09-20T14:55:54.810Z,38.55
2022-09-20T14:58:21.507Z,37.66
2022-09-20T15:01:15.559Z,37.62
2022-09-20T15:03:42.777Z,38.33
2022-09-20T15:06:13.242Z,40.19
2022-09-20T15:08:45.441Z,41.77
2022-09-20T15:11:18.064Z,42.26
2022-09-20T15:13:45.483Z,42.61
2022-09-20T15:16:14.474Z,42.01
2022-09-20T15:18:43.048Z,41.63
2022-09-20T15:21:11.257Z,42.79
2022-09-20T15:23:39.464Z,43.68
2022-09-20T15:26:07.626Z,43.58
2022-09-20T15:28:34.978Z,43.60
2022-09-20T15:31:02.227Z,44.35
2022-09-20T15:33:30.818Z,44.91
2022-09-20T15:35:57.873Z,45.28
2022-09-20T15:38:26.922Z,44.67
2022-09-20T15:40:54.147Z,44.75
2022-09-20T15:43:24.141Z,44.35
2022-09-20T15:45:55.516Z,45.63
2022-09-20T15:48:24.889Z,45.59
2022-09-20T15:50:58.496Z,45.66
2022-09-20T15:53:25.314Z,44.80
2022-09-20T15:55:52.199Z,45.00
2022-09-20T15:58:18.839Z,45.91
2022-09-20T16:00:45.875Z,46.06
2022-09-20T16:03:12.935Z,45.89
2022-09-20T16:05:39.640Z,45.47
2022-09-20T16:08:06.396Z,45.84
2022-09-20T16:10:33.109Z,45.80
2022-09-20T16:12:59.826Z,45.77
2022-09-20T16:15:26.555Z,45.95
2022-09-20T16:18:11.695Z,46.01
2022-09-20T16:20:38.448Z,45.42
2022-09-20T16:23:05.361Z,46.18
2022-09-20T16:25:32.312Z,46.34
2022-09-20T16:27:59.053Z,45.15
2022-09-20T16:30:26.995Z,46.02
2022-09-20T16:32:53.728Z,46.24
2022-09-20T16:35:20.438Z,45.58
2022-09-20T16:37:48.193Z,45.12
2022-09-20T16:40:15.145Z,45.65
2022-09-20T16:42:52.095Z,45.25
2022-09-20T16:45:19.302Z,45.45
2022-09-20T16:47:46.645Z,46.23
2022-09-20T16:50:13.446Z,45.62
2022-09-20T16:52:40.198Z,45.92
2022-09-20T16:55:07.800Z,45.99
2022-09-20T16:57:36.746Z,45.82
2022-09-20T17:00:04.088Z,45.69
2022-09-20T17:02:30.760Z,45.65
2022-09-20T17:04:57.459Z,45.85
2022-09-20T17:07:24.258Z,46.23
2022-09-20T17:09:51.064Z,46.90
2022-09-20T17:12:21.836Z,46.49
2022-09-20T17:14:48.582Z,46.92
2022-09-20T17:17:15.300Z,46.87
2022-09-20T17:19:42.429Z,46.76
2022-09-20T17:22:09.171Z,47.02
2022-09-20T17:24:35.909Z,47.78
2022-09-20T17:27:04.073Z,47.88
2022-09-20T17:29:30.837Z,48.34
2022-09-20T17:31:59.847Z,48.52
2022-09-20T17:34:27.990Z,49.16
2022-09-20T17:36:55.211Z,49.58
2022-09-20T17:39:22.153Z,50.25
2022-09-20T17:41:50.232Z,50.05
2022-09-20T17:44:17.182Z,50.58
2022-09-20T17:46:45.996Z,50.22
2022-09-20T17:49:16.394Z,50.50
2022-09-20T17:51:49.061Z,51.68
2022-09-20T17:54:16.307Z,53.74
2022-09-20T17:56:45.749Z,55.12
2022-09-20T17:59:14.458Z,55.22
2022-09-20T18:01:41.936Z,55.61
2022-09-20T18:04:09.537Z,55.47
2022-09-20T18:06:50.623Z,55.45
2022-09-20T18:09:20.558Z,55.77
2022-09-20T18:11:49.820Z,55.87
2022-09-20T18:14:27.959Z,55.52
2022-09-20T18:16:57.971Z,55.77
2022-09-20T18:19:25.042Z,56.10
2022-09-20T18:21:51.812Z,56.17
2022-09-20T18:24:18.690Z,56.30
2022-09-20T18:26:45.463Z,56.30
2022-09-20T18:29:14.413Z,55.69
2022-09-20T18:31:44.586Z,56.09
2022-09-20T18:34:18.201Z,56.42
2022-09-20T18:36:54.090Z,57.36
2022-09-20T18:39:25.139Z,57.85
2022-09-20T18:41:53.119Z,57.77
2022-09-20T18:44:21.673Z,57.38
2022-09-20T18:46:49.402Z,56.62
2022-09-20T18:49:16.979Z,56.84
2022-09-20T18:51:45.443Z,56.70
2022-09-20T18:54:12.904Z,57.38
2022-09-20T18:56:44.394Z,57.23
2022-09-20T18:59:25.352Z,57.15
2022-09-20T19:01:58.748Z,57.04
2022-09-20T19:04:37.778Z,57.10
2022-09-20T19:07:13.680Z,57.18
2022-09-20T19:09:49.619Z,57.10
2022-09-20T19:12:23.299Z,57.51
2022-09-20T19:15:04.934Z,57.77
2022-09-20T19:18:04.411Z,58.03
2022-09-20T19:20:41.294Z,58.37
2022-09-20T19:23:49.692Z,57.88
2022-09-20T19:26:19.414Z,58.23
2022-09-20T19:28:47.314Z,58.42
2022-09-20T19:31:22.344Z,58.72
2022-09-20T19:33:49.441Z,58.47
2022-09-20T19:36:17.281Z,58.61
2022-09-20T19:39:07.787Z,58.89
2022-09-20T19:41:44.662Z,58.97
2022-09-20T19:44:30.527Z,58.44
2022-09-20T19:47:10.316Z,59.28
2022-09-20T19:50:03.444Z,59.47
2022-09-20T19:52:30.969Z,59.88
2022-09-20T19:54:57.848Z,60.03
2022-09-20T19:57:46.866Z,59.88
2022-09-20T20:00:21.121Z,59.77
2022-09-20T20:02:48.441Z,60.19
2022-09-20T20:05:20.379Z,60.16
2022-09-20T20:08:16.277Z,60.18
2022-09-20T20:11:09.029Z,60.49
2022-09-20T20:14:03.602Z,60.81
2022-09-20T20:16:45.546Z,60.94
2022-09-20T20:19:30.572Z,60.85
2022-09-20T20:22:29.175Z,60.89
2022-09-20T20:24:56.673Z,60.96
2022-09-20T20:27:28.155Z,60.80
2022-09-20T20:29:55.617Z,60.99
2022-09-20T20:32:22.848Z,61.27
2022-09-20T20:34:49.774Z,61.11
2022-09-20T20:37:18.076Z,61.42
2022-09-20T20:39:45.082Z,61.96
2022-09-20T20:42:12.811Z,61.92
2022-09-20T20:44:40.070Z,62.46
2022-09-20T20:47:07.227Z,62.83
2022-09-20T20:49:34.636Z,62.88
2022-09-20T20:52:04.625Z,62.36
2022-09-20T20:54:32.348Z,62.04
2022-09-20T20:56:59.465Z,61.73
2022-09-20T20:59:26.326Z,61.98
2022-09-20T21:01:53.326Z,62.20
2022-09-20T21:04:21.545Z,62.47
2022-09-20T21:06:48.334Z,62.95
2022-09-20T21:09:15.127Z,63.16
2022-09-20T21:11:44.793Z,63.15
2022-09-20T21:14:12.755Z,63.05
2022-09-20T21:16:42.973Z,63.12
2022-09-20T21:19:14.583Z,63.47
2022-09-20T21:21:43.442Z,63.23
2022-09-20T21:24:12.749Z,62.69
2022-09-20T21:26:40.426Z,62.69
2022-09-20T21:29:10.876Z,62.36
2022-09-20T21:31:45.151Z,62.33
2022-09-20T21:34:15.364Z,62.21
2022-09-20T21:36:42.763Z,62.29
2022-09-20T21:39:09.557Z,62.53
2022-09-20T21:41:37.967Z,63.09
2022-09-20T21:44:06.089Z,63.23
2022-09-20T21:46:40.559Z,62.90
2022-09-20T21:49:10.063Z,62.68
2022-09-20T21:51:38.098Z,62.79
2022-09-20T21:54:05.924Z,63.09
2022-09-20T21:56:35.065Z,62.61
2022-09-20T21:59:04.054Z,62.02
2022-09-20T22:01:34.535Z,61.57
2022-09-20T22:04:06.440Z,61.44
2022-09-20T22:06:36.504Z,61.30
2022-09-20T22:09:09.031Z,61.54
2022-09-20T22:11:39.145Z,61.84
2022-09-20T22:14:07.764Z,62.04
2022-09-20T22:16:37.812Z,62.22
2022-09-20T22:19:06.907Z,61.95
2022-09-20T22:21:36.781Z,61.96
2022-09-20T22:24:05.954Z,61.90
2022-09-20T22:26:38.572Z,62.78
2022-09-20T22:29:06.475Z,62.66
2022-09-20T22:31:35.900Z,63.01
2022-09-20T22:34:05.526Z,62.71
2022-09-20T22:36:35.190Z,62.96
2022-09-20T22:39:03.550Z,62.72
2022-09-20T22:41:30.371Z,62.81
2022-09-20T22:43:57.109Z,62.77
2022-09-20T22:46:26.596Z,62.77
2022-09-20T22:48:53.629Z,62.60
2022-09-20T22:51:23.761Z,62.19
2022-09-20T22:53:52.169Z,61.65
2022-09-20T22:56:29.230Z,61.63
2022-09-20T22:59:00.010Z,62.32
2022-09-20T23:01:29.763Z,63.05
2022-09-20T23:03:59.182Z,63.16
2022-09-20T23:06:29.082Z,62.46
2022-09-20T23:08:58.038Z,62.55
2022-09-20T23:11:25.868Z,62.30
2022-09-20T23:13:57.958Z,62.20
2022-09-20T23:16:30.154Z,62.30
2022-09-20T23:18:58.630Z,62.47
2022-09-20T23:21:26.092Z,63.35
2022-09-20T23:23:58.266Z,63.03
2022-09-20T23:26:26.263Z,63.77
2022-09-20T23:28:58.137Z,63.17
2022-09-20T23:31:25.811Z,62.62
2022-09-20T23:33:57.881Z,62.67
2022-09-20T23:36:26.969Z,63.00
2022-09-20T23:38:54.131Z,62.77
2022-09-20T23:41:22.867Z,62.63
2022-09-20T23:43:49.634Z,63.02
2022-09-20T23:46:18.548Z,63.01
2022-09-20T23:48:45.636Z,63.07
2022-09-20T23:51:17.600Z,63.62
2022-09-20T23:53:44.919Z,63.17
2022-09-20T23:56:12.539Z,63.12
2022-09-20T23:58:40.600Z,63.58
